Earlsfield, United Kingdom
Current Conditions -  °F | °C
As of 4:20 PM on Friday 21 Nov 2014 (Local Time) from EGLC Reporting Station
Broken Clouds Broken Clouds  
Wind Chill: 43°   Ceiling: 900
Heat Index: 48°   Visibility: 4mi
Dew Point: 45°   Wind: 12mph
Humidity: 87%   Direction: 90°E
Pressure: 29.97"   Gusts: NA
Location:  51.46°N, 0.18°W
Report Text: EGLC 211620Z 09010KT 6000 BKN009 09/07 Q1015
Loading
Personal Weather Stations






























Interactive Weather Map New forecast layout! Learn more

10-Day Weather Forecast

Advertisements
Track Severe Weather on mobile